Metar z połowy godziny Komunikat METAR ze strony awiacja.imgw.pl Metar G30 EPPO METAR EPPO 180830Z 34003KT 3400 BR NSC M02/M02 Q1032 =